sensor_id;sensor_type;location;lat;lon;timestamp;P1;durP1;ratioP1;P2;durP2;ratioP2
37543;SDS011;23385;52.038;20.322;2022-09-09T00:02:01;13.10;;;9.10;;
37543;SDS011;23385;52.038;20.322;2022-09-09T00:04:34;13.83;;;9.13;;
37543;SDS011;23385;52.038;20.322;2022-09-09T00:09:55;15.80;;;9.30;;
37543;SDS011;23385;52.038;20.322;2022-09-09T00:15:21;12.77;;;9.40;;
37543;SDS011;23385;52.038;20.322;2022-09-09T00:20:36;15.43;;;9.87;;
37543;SDS011;23385;52.038;20.322;2022-09-09T00:23:38;17.53;;;10.10;;
37543;SDS011;23385;52.038;20.322;2022-09-09T00:26:10;20.43;;;10.17;;
37543;SDS011;23385;52.038;20.322;2022-09-09T00:29:00;16.33;;;10.23;;
37543;SDS011;23385;52.038;20.322;2022-09-09T00:31:47;13.43;;;9.67;;
37543;SDS011;23385;52.038;20.322;2022-09-09T00:34:15;13.83;;;10.13;;
37543;SDS011;23385;52.038;20.322;2022-09-09T00:36:48;15.47;;;10.53;;
37543;SDS011;23385;52.038;20.322;2022-09-09T00:42:13;14.23;;;8.90;;
37543;SDS011;23385;52.038;20.322;2022-09-09T00:44:59;14.23;;;9.47;;
37543;SDS011;23385;52.038;20.322;2022-09-09T00:50:25;16.40;;;10.13;;
37543;SDS011;23385;52.038;20.322;2022-09-09T00:53:32;14.63;;;9.40;;
37543;SDS011;23385;52.038;20.322;2022-09-09T00:56:22;18.07;;;10.00;;
37543;SDS011;23385;52.038;20.322;2022-09-09T01:01:36;19.37;;;10.67;;
37543;SDS011;23385;52.038;20.322;2022-09-09T01:04:09;13.87;;;10.20;;
37543;SDS011;23385;52.038;20.322;2022-09-09T01:06:41;20.57;;;10.50;;
37543;SDS011;23385;52.038;20.322;2022-09-09T01:17:07;16.43;;;10.70;;
37543;SDS011;23385;52.038;20.322;2022-09-09T01:22:52;16.53;;;10.83;;
37543;SDS011;23385;52.038;20.322;2022-09-09T01:28:35;20.73;;;10.90;;
37543;SDS011;23385;52.038;20.322;2022-09-09T01:31:03;17.73;;;10.60;;
37543;SDS011;23385;52.038;20.322;2022-09-09T01:33:31;16.67;;;11.60;;
37543;SDS011;23385;52.038;20.322;2022-09-09T01:35:58;20.63;;;11.03;;
37543;SDS011;23385;52.038;20.322;2022-09-09T01:38:43;18.40;;;12.47;;
37543;SDS011;23385;52.038;20.322;2022-09-09T01:41:08;17.57;;;11.53;;
37543;SDS011;23385;52.038;20.322;2022-09-09T01:43:34;17.93;;;11.27;;
37543;SDS011;23385;52.038;20.322;2022-09-09T01:46:00;18.60;;;10.50;;
37543;SDS011;23385;52.038;20.322;2022-09-09T01:48:28;16.10;;;11.67;;
37543;SDS011;23385;52.038;20.322;2022-09-09T01:50:54;17.17;;;11.10;;
37543;SDS011;23385;52.038;20.322;2022-09-09T01:53:21;14.80;;;11.57;;
37543;SDS011;23385;52.038;20.322;2022-09-09T01:56:05;18.70;;;12.07;;
37543;SDS011;23385;52.038;20.322;2022-09-09T02:03:53;17.00;;;11.63;;
37543;SDS011;23385;52.038;20.322;2022-09-09T02:06:33;17.37;;;12.07;;
37543;SDS011;23385;52.038;20.322;2022-09-09T02:09:05;18.70;;;12.60;;
37543;SDS011;23385;52.038;20.322;2022-09-09T02:11:33;17.40;;;11.97;;
37543;SDS011;23385;52.038;20.322;2022-09-09T02:19:20;28.37;;;13.40;;
37543;SDS011;23385;52.038;20.322;2022-09-09T02:21:55;23.37;;;13.30;;
37543;SDS011;23385;52.038;20.322;2022-09-09T02:24:22;15.77;;;12.03;;
37543;SDS011;23385;52.038;20.322;2022-09-09T02:26:49;20.03;;;12.60;;
37543;SDS011;23385;52.038;20.322;2022-09-09T02:29:27;21.93;;;12.60;;
37543;SDS011;23385;52.038;20.322;2022-09-09T02:31:58;22.23;;;12.80;;
37543;SDS011;23385;52.038;20.322;2022-09-09T02:34:29;22.60;;;13.37;;
37543;SDS011;23385;52.038;20.322;2022-09-09T02:37:01;21.03;;;14.07;;
37543;SDS011;23385;52.038;20.322;2022-09-09T02:39:30;19.27;;;13.63;;
37543;SDS011;23385;52.038;20.322;2022-09-09T02:41:56;20.00;;;13.83;;
37543;SDS011;23385;52.038;20.322;2022-09-09T02:44:22;22.10;;;14.50;;
37543;SDS011;23385;52.038;20.322;2022-09-09T02:54:35;24.67;;;13.97;;
37543;SDS011;23385;52.038;20.322;2022-09-09T02:59:37;18.10;;;13.40;;
37543;SDS011;23385;52.038;20.322;2022-09-09T03:02:03;19.83;;;13.50;;
37543;SDS011;23385;52.038;20.322;2022-09-09T03:04:29;25.57;;;14.60;;
37543;SDS011;23385;52.038;20.322;2022-09-09T03:06:56;18.37;;;13.83;;
37543;SDS011;23385;52.038;20.322;2022-09-09T03:09:23;22.50;;;14.53;;
37543;SDS011;23385;52.038;20.322;2022-09-09T03:11:51;17.57;;;14.17;;
37543;SDS011;23385;52.038;20.322;2022-09-09T03:14:17;22.10;;;13.33;;
37543;SDS011;23385;52.038;20.322;2022-09-09T03:16:46;20.80;;;14.17;;
37543;SDS011;23385;52.038;20.322;2022-09-09T03:19:12;20.03;;;14.80;;
37543;SDS011;23385;52.038;20.322;2022-09-09T03:21:38;21.40;;;14.43;;
37543;SDS011;23385;52.038;20.322;2022-09-09T03:24:05;19.73;;;13.30;;
37543;SDS011;23385;52.038;20.322;2022-09-09T03:26:31;18.40;;;13.37;;
37543;SDS011;23385;52.038;20.322;2022-09-09T03:28:58;23.20;;;14.73;;
37543;SDS011;23385;52.038;20.322;2022-09-09T03:31:25;20.00;;;13.93;;
37543;SDS011;23385;52.038;20.322;2022-09-09T03:33:55;23.10;;;13.03;;
37543;SDS011;23385;52.038;20.322;2022-09-09T03:36:27;20.13;;;13.57;;
37543;SDS011;23385;52.038;20.322;2022-09-09T03:38:54;20.57;;;13.60;;
37543;SDS011;23385;52.038;20.322;2022-09-09T03:41:23;21.27;;;14.63;;
37543;SDS011;23385;52.038;20.322;2022-09-09T03:43:50;16.57;;;12.63;;
37543;SDS011;23385;52.038;20.322;2022-09-09T03:46:16;18.67;;;13.27;;
37543;SDS011;23385;52.038;20.322;2022-09-09T03:48:46;19.93;;;14.20;;
37543;SDS011;23385;52.038;20.322;2022-09-09T03:51:14;23.80;;;14.23;;
37543;SDS011;23385;52.038;20.322;2022-09-09T03:53:41;17.47;;;13.37;;
37543;SDS011;23385;52.038;20.322;2022-09-09T03:56:08;21.17;;;13.97;;
37543;SDS011;23385;52.038;20.322;2022-09-09T03:58:34;20.57;;;13.80;;
37543;SDS011;23385;52.038;20.322;2022-09-09T04:01:02;21.17;;;13.87;;
37543;SDS011;23385;52.038;20.322;2022-09-09T04:03:38;17.57;;;12.33;;
37543;SDS011;23385;52.038;20.322;2022-09-09T04:06:05;15.93;;;12.47;;
37543;SDS011;23385;52.038;20.322;2022-09-09T04:08:33;17.17;;;12.77;;
37543;SDS011;23385;52.038;20.322;2022-09-09T04:11:01;21.00;;;14.50;;
37543;SDS011;23385;52.038;20.322;2022-09-09T04:13:30;18.97;;;13.00;;
37543;SDS011;23385;52.038;20.322;2022-09-09T04:15:57;17.47;;;12.77;;
37543;SDS011;23385;52.038;20.322;2022-09-09T04:18:24;15.00;;;11.63;;
37543;SDS011;23385;52.038;20.322;2022-09-09T04:20:51;14.37;;;11.20;;
37543;SDS011;23385;52.038;20.322;2022-09-09T04:23:18;22.97;;;13.57;;
37543;SDS011;23385;52.038;20.322;2022-09-09T04:25:49;22.60;;;13.60;;
37543;SDS011;23385;52.038;20.322;2022-09-09T04:28:17;16.83;;;12.77;;
37543;SDS011;23385;52.038;20.322;2022-09-09T04:30:44;20.60;;;12.23;;
37543;SDS011;23385;52.038;20.322;2022-09-09T04:33:11;20.50;;;12.63;;
37543;SDS011;23385;52.038;20.322;2022-09-09T04:35:38;17.87;;;13.43;;
37543;SDS011;23385;52.038;20.322;2022-09-09T04:38:05;17.97;;;11.73;;
37543;SDS011;23385;52.038;20.322;2022-09-09T04:40:34;16.60;;;11.90;;
37543;SDS011;23385;52.038;20.322;2022-09-09T04:43:01;17.57;;;12.13;;
37543;SDS011;23385;52.038;20.322;2022-09-09T04:45:31;18.23;;;13.73;;
37543;SDS011;23385;52.038;20.322;2022-09-09T04:47:57;16.53;;;12.80;;
37543;SDS011;23385;52.038;20.322;2022-09-09T04:50:23;17.27;;;13.30;;
37543;SDS011;23385;52.038;20.322;2022-09-09T04:52:50;19.13;;;13.03;;
37543;SDS011;23385;52.038;20.322;2022-09-09T04:55:15;24.60;;;13.27;;
37543;SDS011;23385;52.038;20.322;2022-09-09T04:57:41;19.30;;;13.20;;
37543;SDS011;23385;52.038;20.322;2022-09-09T05:00:07;22.57;;;13.50;;
37543;SDS011;23385;52.038;20.322;2022-09-09T05:02:38;21.13;;;14.57;;
37543;SDS011;23385;52.038;20.322;2022-09-09T05:05:05;18.80;;;13.77;;
37543;SDS011;23385;52.038;20.322;2022-09-09T05:07:32;18.63;;;13.90;;
37543;SDS011;23385;52.038;20.322;2022-09-09T05:09:58;20.80;;;13.40;;
37543;SDS011;23385;52.038;20.322;2022-09-09T05:12:24;21.17;;;15.10;;
37543;SDS011;23385;52.038;20.322;2022-09-09T05:14:53;23.17;;;14.87;;
37543;SDS011;23385;52.038;20.322;2022-09-09T05:17:19;20.33;;;14.90;;
37543;SDS011;23385;52.038;20.322;2022-09-09T05:19:45;21.20;;;14.83;;
37543;SDS011;23385;52.038;20.322;2022-09-09T05:22:11;18.67;;;14.40;;
37543;SDS011;23385;52.038;20.322;2022-09-09T05:24:39;18.83;;;14.53;;
37543;SDS011;23385;52.038;20.322;2022-09-09T05:27:05;19.57;;;14.20;;
37543;SDS011;23385;52.038;20.322;2022-09-09T05:29:31;23.70;;;13.63;;
37543;SDS011;23385;52.038;20.322;2022-09-09T05:32:00;22.10;;;13.27;;
37543;SDS011;23385;52.038;20.322;2022-09-09T05:34:27;22.23;;;13.80;;
37543;SDS011;23385;52.038;20.322;2022-09-09T05:36:52;21.17;;;14.47;;
37543;SDS011;23385;52.038;20.322;2022-09-09T05:39:18;20.17;;;14.40;;
37543;SDS011;23385;52.038;20.322;2022-09-09T05:41:44;18.23;;;13.20;;
37543;SDS011;23385;52.038;20.322;2022-09-09T05:44:10;23.83;;;14.60;;
37543;SDS011;23385;52.038;20.322;2022-09-09T05:46:36;17.30;;;12.47;;
37543;SDS011;23385;52.038;20.322;2022-09-09T05:49:04;25.07;;;13.87;;
37543;SDS011;23385;52.038;20.322;2022-09-09T05:51:31;21.50;;;14.23;;
37543;SDS011;23385;52.038;20.322;2022-09-09T05:53:57;20.43;;;12.87;;
37543;SDS011;23385;52.038;20.322;2022-09-09T05:56:26;24.37;;;15.50;;
37543;SDS011;23385;52.038;20.322;2022-09-09T05:58:54;21.60;;;13.33;;
37543;SDS011;23385;52.038;20.322;2022-09-09T06:01:21;25.27;;;14.60;;
37543;SDS011;23385;52.038;20.322;2022-09-09T06:03:52;26.23;;;14.40;;
37543;SDS011;23385;52.038;20.322;2022-09-09T06:06:19;23.60;;;12.87;;
37543;SDS011;23385;52.038;20.322;2022-09-09T06:08:51;24.03;;;13.77;;
37543;SDS011;23385;52.038;20.322;2022-09-09T06:11:19;25.70;;;13.97;;
37543;SDS011;23385;52.038;20.322;2022-09-09T06:13:47;27.43;;;15.17;;
37543;SDS011;23385;52.038;20.322;2022-09-09T06:16:14;21.47;;;13.70;;
37543;SDS011;23385;52.038;20.322;2022-09-09T06:18:41;23.13;;;14.60;;
37543;SDS011;23385;52.038;20.322;2022-09-09T06:21:17;28.60;;;14.50;;
37543;SDS011;23385;52.038;20.322;2022-09-09T06:23:55;25.13;;;14.33;;
37543;SDS011;23385;52.038;20.322;2022-09-09T06:26:22;25.10;;;15.00;;
37543;SDS011;23385;52.038;20.322;2022-09-09T06:28:51;25.57;;;15.27;;
37543;SDS011;23385;52.038;20.322;2022-09-09T06:31:19;24.30;;;13.97;;
37543;SDS011;23385;52.038;20.322;2022-09-09T06:33:47;26.13;;;14.60;;
37543;SDS011;23385;52.038;20.322;2022-09-09T06:36:19;29.10;;;15.23;;
37543;SDS011;23385;52.038;20.322;2022-09-09T06:38:46;27.33;;;15.00;;
37543;SDS011;23385;52.038;20.322;2022-09-09T06:41:13;25.63;;;14.73;;
37543;SDS011;23385;52.038;20.322;2022-09-09T06:43:41;27.43;;;14.63;;
37543;SDS011;23385;52.038;20.322;2022-09-09T06:46:11;29.87;;;15.77;;
37543;SDS011;23385;52.038;20.322;2022-09-09T06:48:39;28.57;;;15.03;;
37543;SDS011;23385;52.038;20.322;2022-09-09T06:51:19;26.63;;;15.93;;
37543;SDS011;23385;52.038;20.322;2022-09-09T06:53:52;30.10;;;15.20;;
37543;SDS011;23385;52.038;20.322;2022-09-09T06:56:21;28.90;;;16.33;;
37543;SDS011;23385;52.038;20.322;2022-09-09T06:58:55;29.00;;;15.80;;
37543;SDS011;23385;52.038;20.322;2022-09-09T07:01:24;33.20;;;15.87;;
37543;SDS011;23385;52.038;20.322;2022-09-09T07:03:52;33.83;;;17.23;;
37543;SDS011;23385;52.038;20.322;2022-09-09T07:06:23;35.27;;;17.50;;
37543;SDS011;23385;52.038;20.322;2022-09-09T07:08:55;34.80;;;17.53;;
37543;SDS011;23385;52.038;20.322;2022-09-09T07:11:23;32.97;;;17.93;;
37543;SDS011;23385;52.038;20.322;2022-09-09T07:13:52;35.93;;;17.50;;
37543;SDS011;23385;52.038;20.322;2022-09-09T07:16:18;41.03;;;17.20;;
37543;SDS011;23385;52.038;20.322;2022-09-09T07:18:46;35.33;;;18.10;;
37543;SDS011;23385;52.038;20.322;2022-09-09T07:21:13;32.17;;;16.97;;
37543;SDS011;23385;52.038;20.322;2022-09-09T07:23:40;37.23;;;18.23;;
37543;SDS011;23385;52.038;20.322;2022-09-09T07:26:09;45.37;;;18.83;;
37543;SDS011;23385;52.038;20.322;2022-09-09T07:28:37;33.67;;;17.77;;
37543;SDS011;23385;52.038;20.322;2022-09-09T07:31:04;39.33;;;17.33;;
37543;SDS011;23385;52.038;20.322;2022-09-09T07:33:31;38.63;;;18.10;;
37543;SDS011;23385;52.038;20.322;2022-09-09T07:36:02;40.00;;;18.23;;
37543;SDS011;23385;52.038;20.322;2022-09-09T07:38:31;43.53;;;19.07;;
37543;SDS011;23385;52.038;20.322;2022-09-09T07:41:07;34.50;;;18.83;;
37543;SDS011;23385;52.038;20.322;2022-09-09T07:43:40;35.27;;;18.03;;
37543;SDS011;23385;52.038;20.322;2022-09-09T07:46:07;37.47;;;18.73;;
37543;SDS011;23385;52.038;20.322;2022-09-09T07:48:34;38.37;;;18.63;;
37543;SDS011;23385;52.038;20.322;2022-09-09T07:51:04;38.27;;;19.13;;
37543;SDS011;23385;52.038;20.322;2022-09-09T07:53:36;39.40;;;19.67;;
37543;SDS011;23385;52.038;20.322;2022-09-09T07:56:08;36.60;;;17.90;;
37543;SDS011;23385;52.038;20.322;2022-09-09T07:58:36;41.00;;;18.87;;
37543;SDS011;23385;52.038;20.322;2022-09-09T08:01:09;41.67;;;19.07;;
37543;SDS011;23385;52.038;20.322;2022-09-09T08:03:56;39.20;;;19.33;;
37543;SDS011;23385;52.038;20.322;2022-09-09T08:06:24;39.80;;;19.73;;
37543;SDS011;23385;52.038;20.322;2022-09-09T08:08:52;43.40;;;20.47;;
37543;SDS011;23385;52.038;20.322;2022-09-09T08:11:20;45.07;;;20.77;;
37543;SDS011;23385;52.038;20.322;2022-09-09T08:13:48;48.57;;;21.87;;
37543;SDS011;23385;52.038;20.322;2022-09-09T08:16:19;46.50;;;22.37;;
37543;SDS011;23385;52.038;20.322;2022-09-09T08:18:50;44.00;;;22.63;;
37543;SDS011;23385;52.038;20.322;2022-09-09T08:21:21;45.63;;;23.60;;
37543;SDS011;23385;52.038;20.322;2022-09-09T08:23:53;47.67;;;24.10;;
37543;SDS011;23385;52.038;20.322;2022-09-09T08:26:27;43.20;;;22.20;;
37543;SDS011;23385;52.038;20.322;2022-09-09T08:28:59;49.57;;;23.00;;
37543;SDS011;23385;52.038;20.322;2022-09-09T08:31:27;43.23;;;22.07;;
37543;SDS011;23385;52.038;20.322;2022-09-09T08:33:55;50.30;;;24.27;;
37543;SDS011;23385;52.038;20.322;2022-09-09T08:36:23;41.30;;;22.33;;
37543;SDS011;23385;52.038;20.322;2022-09-09T08:38:51;45.57;;;21.80;;
37543;SDS011;23385;52.038;20.322;2022-09-09T08:44:03;52.07;;;24.07;;
37543;SDS011;23385;52.038;20.322;2022-09-09T08:49:18;46.23;;;23.93;;
37543;SDS011;23385;52.038;20.322;2022-09-09T08:52:08;44.40;;;22.83;;
37543;SDS011;23385;52.038;20.322;2022-09-09T08:54:41;50.20;;;24.80;;
37543;SDS011;23385;52.038;20.322;2022-09-09T08:57:09;47.33;;;24.23;;
37543;SDS011;23385;52.038;20.322;2022-09-09T08:59:41;49.13;;;23.37;;
37543;SDS011;23385;52.038;20.322;2022-09-09T09:02:17;50.47;;;23.60;;
37543;SDS011;23385;52.038;20.322;2022-09-09T09:04:58;46.43;;;24.63;;
37543;SDS011;23385;52.038;20.322;2022-09-09T09:19:03;61.63;;;30.63;;
37543;SDS011;23385;52.038;20.322;2022-09-09T09:21:42;47.00;;;24.53;;
37543;SDS011;23385;52.038;20.322;2022-09-09T09:24:18;46.83;;;23.83;;
37543;SDS011;23385;52.038;20.322;2022-09-09T09:26:57;61.40;;;32.40;;
37543;SDS011;23385;52.038;20.322;2022-09-09T09:29:26;49.73;;;26.53;;
37543;SDS011;23385;52.038;20.322;2022-09-09T09:31:52;54.90;;;28.70;;
37543;SDS011;23385;52.038;20.322;2022-09-09T09:34:22;43.40;;;24.77;;
37543;SDS011;23385;52.038;20.322;2022-09-09T09:39:22;44.27;;;23.77;;
37543;SDS011;23385;52.038;20.322;2022-09-09T09:41:53;45.77;;;24.77;;
37543;SDS011;23385;52.038;20.322;2022-09-09T09:44:23;48.53;;;27.47;;
37543;SDS011;23385;52.038;20.322;2022-09-09T09:46:51;51.13;;;26.10;;
37543;SDS011;23385;52.038;20.322;2022-09-09T09:49:17;45.93;;;24.67;;
37543;SDS011;23385;52.038;20.322;2022-09-09T09:51:43;42.10;;;24.07;;
37543;SDS011;23385;52.038;20.322;2022-09-09T09:56:38;49.73;;;25.07;;
37543;SDS011;23385;52.038;20.322;2022-09-09T09:59:05;42.10;;;24.37;;
37543;SDS011;23385;52.038;20.322;2022-09-09T10:01:45;41.33;;;24.33;;
37543;SDS011;23385;52.038;20.322;2022-09-09T10:04:15;42.37;;;25.47;;
37543;SDS011;23385;52.038;20.322;2022-09-09T10:06:48;43.40;;;22.23;;
37543;SDS011;23385;52.038;20.322;2022-09-09T10:09:20;43.47;;;23.57;;
37543;SDS011;23385;52.038;20.322;2022-09-09T10:11:53;35.73;;;21.87;;
37543;SDS011;23385;52.038;20.322;2022-09-09T10:17:20;39.43;;;22.20;;
37543;SDS011;23385;52.038;20.322;2022-09-09T10:22:52;44.30;;;28.10;;
37543;SDS011;23385;52.038;20.322;2022-09-09T10:25:43;35.23;;;19.70;;
37543;SDS011;23385;52.038;20.322;2022-09-09T10:36:32;30.70;;;17.80;;
37543;SDS011;23385;52.038;20.322;2022-09-09T10:39:04;31.57;;;19.10;;
37543;SDS011;23385;52.038;20.322;2022-09-09T10:53:20;32.63;;;17.97;;
37543;SDS011;23385;52.038;20.322;2022-09-09T10:55:53;29.00;;;18.03;;
37543;SDS011;23385;52.038;20.322;2022-09-09T10:58:27;29.08;;;17.00;;
37543;SDS011;23385;52.038;20.322;2022-09-09T11:01:29;27.55;;;17.33;;
37543;SDS011;23385;52.038;20.322;2022-09-09T11:03:57;29.48;;;17.92;;
37543;SDS011;23385;52.038;20.322;2022-09-09T11:06:36;22.02;;;14.07;;
37543;SDS011;23385;52.038;20.322;2022-09-09T11:09:08;25.10;;;16.13;;
37543;SDS011;23385;52.038;20.322;2022-09-09T11:11:44;29.50;;;15.95;;
37543;SDS011;23385;52.038;20.322;2022-09-09T11:14:19;23.45;;;15.75;;
37543;SDS011;23385;52.038;20.322;2022-09-09T11:19:49;21.23;;;15.70;;
37543;SDS011;23385;52.038;20.322;2022-09-09T11:22:32;29.08;;;16.30;;
37543;SDS011;23385;52.038;20.322;2022-09-09T11:30:44;23.40;;;16.50;;
37543;SDS011;23385;52.038;20.322;2022-09-09T11:33:16;27.35;;;17.05;;
37543;SDS011;23385;52.038;20.322;2022-09-09T11:38:50;25.77;;;17.88;;
37543;SDS011;23385;52.038;20.322;2022-09-09T11:41:17;26.55;;;15.90;;
37543;SDS011;23385;52.038;20.322;2022-09-09T11:43:46;23.85;;;15.60;;
37543;SDS011;23385;52.038;20.322;2022-09-09T11:46:17;20.67;;;14.65;;
37543;SDS011;23385;52.038;20.322;2022-09-09T11:49:03;23.52;;;16.45;;
37543;SDS011;23385;52.038;20.322;2022-09-09T11:51:31;21.75;;;14.82;;
37543;SDS011;23385;52.038;20.322;2022-09-09T11:53:59;20.17;;;14.68;;
37543;SDS011;23385;52.038;20.322;2022-09-09T11:56:48;23.30;;;15.25;;
37543;SDS011;23385;52.038;20.322;2022-09-09T11:59:20;24.92;;;16.02;;
37543;SDS011;23385;52.038;20.322;2022-09-09T12:14:54;24.48;;;14.43;;
37543;SDS011;23385;52.038;20.322;2022-09-09T12:17:29;20.23;;;13.95;;
37543;SDS011;23385;52.038;20.322;2022-09-09T12:20:01;21.27;;;15.40;;
37543;SDS011;23385;52.038;20.322;2022-09-09T12:28:05;22.40;;;14.57;;
37543;SDS011;23385;52.038;20.322;2022-09-09T12:33:23;19.95;;;13.38;;
37543;SDS011;23385;52.038;20.322;2022-09-09T12:35:56;16.88;;;12.85;;
37543;SDS011;23385;52.038;20.322;2022-09-09T12:38:30;17.45;;;12.20;;
37543;SDS011;23385;52.038;20.322;2022-09-09T12:40:59;14.98;;;10.35;;
37543;SDS011;23385;52.038;20.322;2022-09-09T12:43:26;14.77;;;10.60;;
37543;SDS011;23385;52.038;20.322;2022-09-09T12:46:03;14.05;;;10.48;;
37543;SDS011;23385;52.038;20.322;2022-09-09T12:48:37;11.63;;;8.57;;
37543;SDS011;23385;52.038;20.322;2022-09-09T12:51:17;10.73;;;9.05;;
37543;SDS011;23385;52.038;20.322;2022-09-09T12:53:50;11.02;;;9.10;;
37543;SDS011;23385;52.038;20.322;2022-09-09T12:56:20;16.98;;;10.95;;
37543;SDS011;23385;52.038;20.322;2022-09-09T12:58:48;15.27;;;10.60;;
37543;SDS011;23385;52.038;20.322;2022-09-09T13:01:24;15.00;;;10.45;;
37543;SDS011;23385;52.038;20.322;2022-09-09T13:03:51;16.23;;;11.07;;
37543;SDS011;23385;52.038;20.322;2022-09-09T13:06:28;18.90;;;10.45;;
37543;SDS011;23385;52.038;20.322;2022-09-09T13:08:59;15.40;;;10.82;;
37543;SDS011;23385;52.038;20.322;2022-09-09T13:11:35;12.57;;;9.60;;
37543;SDS011;23385;52.038;20.322;2022-09-09T13:14:16;13.05;;;9.20;;
37543;SDS011;23385;52.038;20.322;2022-09-09T13:16:54;14.50;;;8.98;;
37543;SDS011;23385;52.038;20.322;2022-09-09T13:19:22;13.95;;;9.52;;
37543;SDS011;23385;52.038;20.322;2022-09-09T13:21:50;13.02;;;9.77;;
37543;SDS011;23385;52.038;20.322;2022-09-09T13:24:36;14.45;;;9.10;;
37543;SDS011;23385;52.038;20.322;2022-09-09T13:27:03;9.65;;;7.85;;
37543;SDS011;23385;52.038;20.322;2022-09-09T13:29:51;11.85;;;7.60;;
37543;SDS011;23385;52.038;20.322;2022-09-09T13:32:22;12.77;;;8.20;;
37543;SDS011;23385;52.038;20.322;2022-09-09T13:37:40;13.75;;;8.07;;
37543;SDS011;23385;52.038;20.322;2022-09-09T13:40:06;12.18;;;8.35;;
37543;SDS011;23385;52.038;20.322;2022-09-09T13:42:44;12.63;;;8.93;;
37543;SDS011;23385;52.038;20.322;2022-09-09T13:45:17;12.23;;;9.40;;
37543;SDS011;23385;52.038;20.322;2022-09-09T13:47:47;13.80;;;8.80;;
37543;SDS011;23385;52.038;20.322;2022-09-09T13:50:21;14.18;;;8.82;;
37543;SDS011;23385;52.038;20.322;2022-09-09T13:52:47;11.32;;;8.75;;
37543;SDS011;23385;52.038;20.322;2022-09-09T13:55:16;12.10;;;8.98;;
37543;SDS011;23385;52.038;20.322;2022-09-09T13:57:56;13.95;;;8.57;;
37543;SDS011;23385;52.038;20.322;2022-09-09T14:00:25;22.38;;;10.27;;
37543;SDS011;23385;52.038;20.322;2022-09-09T14:02:51;13.90;;;10.00;;
37543;SDS011;23385;52.038;20.322;2022-09-09T14:05:17;11.68;;;8.80;;
37543;SDS011;23385;52.038;20.322;2022-09-09T14:07:44;11.60;;;7.90;;
37543;SDS011;23385;52.038;20.322;2022-09-09T14:10:10;11.60;;;6.97;;
37543;SDS011;23385;52.038;20.322;2022-09-09T14:12:37;9.60;;;7.05;;
37543;SDS011;23385;52.038;20.322;2022-09-09T14:15:04;8.32;;;6.47;;
37543;SDS011;23385;52.038;20.322;2022-09-09T14:17:31;9.13;;;5.90;;
37543;SDS011;23385;52.038;20.322;2022-09-09T14:19:57;8.02;;;5.63;;
37543;SDS011;23385;52.038;20.322;2022-09-09T14:22:23;8.43;;;6.20;;
37543;SDS011;23385;52.038;20.322;2022-09-09T14:24:50;7.15;;;5.53;;
37543;SDS011;23385;52.038;20.322;2022-09-09T14:27:16;9.63;;;6.00;;
37543;SDS011;23385;52.038;20.322;2022-09-09T14:29:44;8.45;;;6.32;;
37543;SDS011;23385;52.038;20.322;2022-09-09T14:32:10;8.45;;;5.75;;
37543;SDS011;23385;52.038;20.322;2022-09-09T14:34:36;7.40;;;5.90;;
37543;SDS011;23385;52.038;20.322;2022-09-09T14:37:03;8.35;;;6.30;;
37543;SDS011;23385;52.038;20.322;2022-09-09T14:39:29;8.90;;;5.75;;
37543;SDS011;23385;52.038;20.322;2022-09-09T14:41:54;8.02;;;5.55;;
37543;SDS011;23385;52.038;20.322;2022-09-09T14:44:20;10.57;;;6.40;;
37543;SDS011;23385;52.038;20.322;2022-09-09T14:46:47;7.40;;;5.82;;
37543;SDS011;23385;52.038;20.322;2022-09-09T14:49:15;7.35;;;5.07;;
37543;SDS011;23385;52.038;20.322;2022-09-09T14:51:41;7.13;;;4.85;;
37543;SDS011;23385;52.038;20.322;2022-09-09T14:54:07;6.28;;;4.88;;
37543;SDS011;23385;52.038;20.322;2022-09-09T14:56:33;8.30;;;5.63;;
37543;SDS011;23385;52.038;20.322;2022-09-09T14:59:02;5.82;;;5.00;;
37543;SDS011;23385;52.038;20.322;2022-09-09T15:01:29;8.50;;;5.22;;
37543;SDS011;23385;52.038;20.322;2022-09-09T15:03:57;8.00;;;5.72;;
37543;SDS011;23385;52.038;20.322;2022-09-09T15:06:29;6.40;;;4.90;;
37543;SDS011;23385;52.038;20.322;2022-09-09T15:08:58;7.43;;;5.97;;
37543;SDS011;23385;52.038;20.322;2022-09-09T15:11:28;6.90;;;5.43;;
37543;SDS011;23385;52.038;20.322;2022-09-09T15:13:59;7.63;;;5.70;;
37543;SDS011;23385;52.038;20.322;2022-09-09T15:16:26;9.93;;;5.20;;
37543;SDS011;23385;52.038;20.322;2022-09-09T15:18:54;9.27;;;5.70;;
37543;SDS011;23385;52.038;20.322;2022-09-09T15:21:22;7.72;;;5.05;;
37543;SDS011;23385;52.038;20.322;2022-09-09T15:23:50;8.20;;;5.32;;
37543;SDS011;23385;52.038;20.322;2022-09-09T15:26:16;7.07;;;5.30;;
37543;SDS011;23385;52.038;20.322;2022-09-09T15:28:43;6.20;;;5.00;;
37543;SDS011;23385;52.038;20.322;2022-09-09T15:31:12;7.28;;;5.18;;
37543;SDS011;23385;52.038;20.322;2022-09-09T15:33:48;6.88;;;5.15;;
37543;SDS011;23385;52.038;20.322;2022-09-09T15:36:15;6.03;;;4.80;;
37543;SDS011;23385;52.038;20.322;2022-09-09T15:38:49;7.70;;;5.95;;
37543;SDS011;23385;52.038;20.322;2022-09-09T15:41:16;8.18;;;6.35;;
37543;SDS011;23385;52.038;20.322;2022-09-09T15:43:44;11.43;;;6.45;;
37543;SDS011;23385;52.038;20.322;2022-09-09T15:46:53;10.52;;;6.97;;
37543;SDS011;23385;52.038;20.322;2022-09-09T15:49:07;11.52;;;7.78;;
37543;SDS011;23385;52.038;20.322;2022-09-09T15:51:36;13.25;;;8.60;;
37543;SDS011;23385;52.038;20.322;2022-09-09T15:54:03;9.15;;;7.65;;
37543;SDS011;23385;52.038;20.322;2022-09-09T15:56:30;12.57;;;8.77;;
37543;SDS011;23385;52.038;20.322;2022-09-09T15:58:57;11.90;;;8.88;;
37543;SDS011;23385;52.038;20.322;2022-09-09T16:01:25;11.30;;;8.70;;
37543;SDS011;23385;52.038;20.322;2022-09-09T16:03:52;11.80;;;9.10;;
37543;SDS011;23385;52.038;20.322;2022-09-09T16:06:20;12.35;;;9.15;;
37543;SDS011;23385;52.038;20.322;2022-09-09T16:08:49;12.25;;;8.35;;
37543;SDS011;23385;52.038;20.322;2022-09-09T16:11:17;12.70;;;9.13;;
37543;SDS011;23385;52.038;20.322;2022-09-09T16:13:46;11.50;;;8.50;;
37543;SDS011;23385;52.038;20.322;2022-09-09T16:16:14;10.45;;;8.82;;
37543;SDS011;23385;52.038;20.322;2022-09-09T16:18:46;13.80;;;8.98;;
37543;SDS011;23385;52.038;20.322;2022-09-09T16:21:17;14.02;;;8.30;;
37543;SDS011;23385;52.038;20.322;2022-09-09T16:23:44;13.70;;;8.93;;
37543;SDS011;23385;52.038;20.322;2022-09-09T16:26:11;15.18;;;10.95;;
37543;SDS011;23385;52.038;20.322;2022-09-09T16:28:39;19.17;;;12.05;;
37543;SDS011;23385;52.038;20.322;2022-09-09T16:31:08;16.02;;;11.68;;
37543;SDS011;23385;52.038;20.322;2022-09-09T16:33:37;15.18;;;11.07;;
37543;SDS011;23385;52.038;20.322;2022-09-09T16:36:06;17.95;;;11.60;;
37543;SDS011;23385;52.038;20.322;2022-09-09T16:38:39;17.00;;;12.80;;
37543;SDS011;23385;52.038;20.322;2022-09-09T16:41:05;16.90;;;13.13;;
37543;SDS011;23385;52.038;20.322;2022-09-09T16:43:33;14.95;;;10.85;;
37543;SDS011;23385;52.038;20.322;2022-09-09T16:46:01;14.30;;;10.88;;
37543;SDS011;23385;52.038;20.322;2022-09-09T16:48:37;15.55;;;10.60;;